Apollon Hellas — SWFP — position and weather

sailwx.info

Track history (hours):
 
Tides and Currents Weather Stations Pressure Air Temp Water Temp Dewpoint Dewpoint Depression Visibility Wind Speed Wind Dir Waves Ship Positions

Apollon Hellas

Last reported at 2017-Nov-19 19:03 UTC. Time now 2017-Nov-19 20:10 UTC.
Position N 37°57' E 023°38'.

Length 92 m; draft 4 m.

Type: Ship. MMSI: 237002600.

Date/timePositionNaut miles runAvg speedWind from/ knotsBaromVisibWave heightAir tempDewpointWater temp
2017-Nov-19 19:03N 37°57' E 023°38'0 0.2
2017-Nov-19 19:00N 37°57' E 023°38'5 9.6
2017-Nov-19 18:30N 37°53' E 023°34'714.3
2017-Nov-19 18:01N 37°48' E 023°28'4 7.7
2017-Nov-19 17:30N 37°45' E 023°25'3 6.0
2017-Nov-19 17:01N 37°47' E 023°27'714.3
2017-Nov-19 16:30N 37°52' E 023°33'611.7
2017-Nov-19 16:00N 37°57' E 023°38'4 7.1
2017-Nov-19 15:30N 37°54' E 023°35'714.2
2017-Nov-19 15:00N 37°49' E 023°29'510.2
2017-Nov-19 14:30N 37°45' E 023°25'0 0.0
2017-Nov-19 14:00N 37°45' E 023°25'3 5.7
2017-Nov-19 13:30N 37°47' E 023°27'714.2
2017-Nov-19 13:00N 37°52' E 023°34'612.0
2017-Nov-19 12:30N 37°57' E 023°38'0 0.0
2017-Nov-19 12:00N 37°57' E 023°38'4 8.6
2017-Nov-19 11:30N 37°54' E 023°35'714.3
2017-Nov-19 11:00N 37°48' E 023°29'4 8.6
2017-Nov-19 10:30N 37°45' E 023°25'0 0.4
2017-Nov-19 10:00N 37°45' E 023°25'612.3
2017-Nov-19 09:31N 37°49' E 023°30'714.2
2017-Nov-19 09:00N 37°55' E 023°36'2 4.7
2017-Nov-19 08:29N 37°57' E 023°38'613.4
2017-Nov-19 08:00N 37°52' E 023°33'714.4
2017-Nov-19 07:30N 37°47' E 023°26'2 4.6
2017-Nov-19 07:00N 37°45' E 023°25'612.8
2017-Nov-19 06:30N 37°49' E 023°30'714.2
2017-Nov-19 06:00N 37°55' E 023°36'3 5.2
2017-Nov-19 05:29N 37°57' E 023°38'0 0.0
2017-Nov-18 16:16N 37°57' E 023°38'312.4
2017-Nov-18 16:00N 37°54' E 023°35'714.2
2017-Nov-18 15:30N 37°49' E 023°29'510.4
2017-Nov-18 15:00N 37°45' E 023°25'0 0.0
2017-Nov-18 14:30N 37°45' E 023°25'3 5.5
2017-Nov-18 14:00N 37°47' E 023°27'714.3
2017-Nov-18 13:31N 37°52' E 023°33'612.1
2017-Nov-18 13:00N 37°57' E 023°38'0 0.0
2017-Nov-18 12:28N 37°57' E 023°38'3 7.3
2017-Nov-18 12:01N 37°55' E 023°35'714.4
2017-Nov-18 11:30N 37°49' E 023°29'510.5
2017-Nov-18 11:00N 37°45' E 023°25'0 0.0
2017-Nov-18 10:30N 37°45' E 023°25'3 5.6
2017-Nov-18 10:00N 37°47' E 023°27'714.2
2017-Nov-18 09:30N 37°52' E 023°33'6 8.4
2017-Nov-18 08:48N 37°57' E 023°38'310.2
2017-Nov-18 08:30N 37°55' E 023°36'714.3
2017-Nov-18 08:00N 37°49' E 023°30'611.4
2017-Nov-18 07:31N 37°45' E 023°25'3 5.2
2017-Nov-18 07:00N 37°47' E 023°27'714.2
2017-Nov-18 06:30N 37°52' E 023°33'6 0.5
2017-Nov-17 18:30N 37°57' E 023°38'713.3
2017-Nov-17 18:01N 37°52' E 023°33'714.3
2017-Nov-17 17:31N 37°47' E 023°26'2 4.4
2017-Nov-17 17:00N 37°45' E 023°25'612.6
2017-Nov-17 16:30N 37°50' E 023°30'714.3
2017-Nov-17 16:01N 37°55' E 023°36'2 4.9
2017-Nov-17 15:30N 37°57' E 023°38'3 6.8
2017-Nov-17 15:00N 37°54' E 023°35'714.2
2017-Nov-17 14:30N 37°49' E 023°30'510.7
2017-Nov-17 14:00N 37°45' E 023°25'2 4.2
2017-Nov-17 13:30N 37°47' E 023°26'714.5
2017-Nov-17 13:00N 37°52' E 023°33'713.3
2017-Nov-17 12:30N 37°57' E 023°38'0 0.0
2017-Nov-17 11:51N 37°57' E 023°38'410.5
2017-Nov-17 11:30N 37°54' E 023°35'713.9
2017-Nov-17 11:00N 37°49' E 023°29'510.2
2017-Nov-17 10:30N 37°45' E 023°25'0 0.3
2017-Nov-17 10:00N 37°45' E 023°25'612.6
2017-Nov-17 09:30N 37°49' E 023°30'714.2
2017-Nov-17 09:00N 37°55' E 023°36'3 5.1
2017-Nov-17 08:30N 37°57' E 023°38'4 8.4
2017-Nov-17 08:00N 37°54' E 023°35'714.0
2017-Nov-17 07:30N 37°48' E 023°29'5 9.3
2017-Nov-17 07:00N 37°45' E 023°25'2 4.5
2017-Nov-17 06:31N 37°47' E 023°26'714.2
2017-Nov-17 06:01N 37°52' E 023°33'612.5
2017-Nov-17 05:30N 37°56' E 023°38'0 0.7
2017-Nov-17 05:00N 37°57' E 023°38'0 0.0
2017-Nov-16 17:31N 37°57' E 023°38'0 0.9
2017-Nov-16 17:30N 37°57' E 023°38'4 7.9
2017-Nov-16 17:01N 37°54' E 023°35'713.9
2017-Nov-16 16:30N 37°49' E 023°29'5 9.7
2017-Nov-16 16:00N 37°45' E 023°25'0 0.0
2017-Nov-16 15:30N 37°45' E 023°25'0 0.7
2017-Nov-16 15:00N 37°45' E 023°25'613.0
2017-Nov-16 14:30N 37°49' E 023°31'714.0
2017-Nov-16 14:00N 37°55' E 023°36'3 5.2
2017-Nov-16 13:30N 37°57' E 023°38'1 1.3
2017-Nov-16 13:00N 37°56' E 023°38'713.1
2017-Nov-16 12:30N 37°51' E 023°33'714.2
2017-Nov-16 12:00N 37°47' E 023°26'2 4.0
2017-Nov-16 11:30N 37°45' E 023°25'3 6.1
2017-Nov-16 11:01N 37°47' E 023°27'713.6
2017-Nov-16 10:30N 37°52' E 023°34'612.0
2017-Nov-16 10:01N 37°57' E 023°38'0 0.0
2017-Nov-16 09:30N 37°57' E 023°38'0 0.0
2017-Nov-16 09:01N 37°57' E 023°38'0 0.0
2017-Nov-16 08:30N 37°57' E 023°38'4 7.8
2017-Nov-16 08:01N 37°54' E 023°35'714.2
2017-Nov-16 07:31N 37°49' E 023°29'5 9.6
2017-Nov-16 07:00N 37°45' E 023°25'1 2.4
2017-Nov-16 06:30N 37°46' E 023°25'714.0
2017-Nov-16 06:00N 37°50' E 023°31'714.3
2017-Nov-16 05:30N 37°56' E 023°37'1 2.6
2017-Nov-16 05:00N 37°57' E 023°38'0 0.0
2017-Nov-16 04:30N 37°57' E 023°38'0 0.0
2017-Nov-15 16:45N 37°57' E 023°38'1 2.2
2017-Nov-15 16:30N 37°56' E 023°38'713.3
2017-Nov-15 16:00N 37°51' E 023°32'714.1
2017-Nov-15 15:31N 37°47' E 023°26'2 3.9
2017-Nov-15 15:00N 37°45' E 023°25'4 7.9
2017-Nov-15 14:30N 37°48' E 023°28'714.2
2017-Nov-15 14:00N 37°53' E 023°35'5 9.6
2017-Nov-15 13:30N 37°57' E 023°38'1 1.1
2017-Nov-15 13:00N 37°56' E 023°38'713.5
2017-Nov-15 12:31N 37°51' E 023°32'714.2
2017-Nov-15 12:00N 37°46' E 023°26'2 3.5
2017-Nov-15 11:30N 37°45' E 023°25'3 5.9
2017-Nov-15 11:00N 37°47' E 023°27'713.8
2017-Nov-15 10:30N 37°52' E 023°34'612.0
2017-Nov-15 10:01N 37°57' E 023°38'0 0.0
2017-Nov-15 09:31N 37°57' E 023°38'0 0.0
2017-Nov-15 09:01N 37°57' E 023°38'0 0.0
2017-Nov-15 08:30N 37°57' E 023°38'4 8.5
2017-Nov-15 08:00N 37°53' E 023°35'713.8
2017-Nov-15 07:30N 37°48' E 023°29'5 9.3
2017-Nov-15 07:00N 37°45' E 023°25'2 4.0
2017-Nov-15 06:31N 37°47' E 023°26'713.9
2017-Nov-15 06:00N 37°51' E 023°33'713.6
2017-Nov-15 05:30N 37°56' E 023°38'0 1.0
2017-Nov-15 05:00N 37°57' E 023°38'0 0.0
2017-Nov-15 04:31N 37°57' E 023°38'0 0.0
2017-Nov-14 19:55N 37°57' E 023°38'2 5.0
2017-Nov-14 19:31N 37°57' E 023°36'3 6.9
2017-Nov-14 19:01N 37°54' E 023°34'713.8
2017-Nov-14 18:31N 37°49' E 023°29'5 9.1
2017-Nov-14 18:00N 37°45' E 023°25'0 0.0
2017-Nov-14 17:31N 37°45' E 023°25'0 0.0
2017-Nov-14 17:01N 37°45' E 023°25'0 0.0
2017-Nov-14 16:31N 37°45' E 023°25'0 0.0
2017-Nov-14 16:01N 37°45' E 023°25'0 0.0
2017-Nov-14 15:31N 37°45' E 023°25'0 0.0
2017-Nov-14 15:00N 37°45' E 023°25'510.8
2017-Nov-14 14:31N 37°49' E 023°29'713.6
2017-Nov-14 14:00N 37°55' E 023°34'3 5.9
2017-Nov-14 13:30N 37°57' E 023°36'2 3.4
2017-Nov-14 13:01N 37°57' E 023°38'3 6.9
2017-Nov-14 12:31N 37°54' E 023°35'714.0
2017-Nov-14 12:01N 37°49' E 023°29'510.7
2017-Nov-14 11:31N 37°45' E 023°25'2 4.3
2017-Nov-14 11:00N 37°47' E 023°26'714.3
2017-Nov-14 10:30N 37°52' E 023°33'713.4
2017-Nov-14 10:00N 37°57' E 023°38'0 0.1
2017-Nov-14 09:30N 37°57' E 023°38'0 0.0
2017-Nov-14 09:00N 37°57' E 023°38'0 0.0
2017-Nov-14 08:30N 37°57' E 023°38'5 9.6
2017-Nov-14 08:00N 37°53' E 023°34'714.0
2017-Nov-14 07:30N 37°48' E 023°28'4 8.3
2017-Nov-14 07:00N 37°45' E 023°25'2 4.2
2017-Nov-14 06:30N 37°47' E 023°26'714.2
2017-Nov-14 06:00N 37°51' E 023°33'713.3
2017-Nov-14 05:31N 37°57' E 023°38'0 0.6
2017-Nov-14 05:00N 37°57' E 023°38'0 0.0
2017-Nov-14 04:30N 37°57' E 023°38'0 0.0
2017-Nov-12 16:31N 37°57' E 023°38'0 2.9
2017-Nov-12 16:30N 37°57' E 023°38'4 7.7
2017-Nov-12 16:00N 37°54' E 023°35'714.1
2017-Nov-12 15:30N 37°49' E 023°29'5 9.7
2017-Nov-12 15:00N 37°45' E 023°25'0 0.0
2017-Nov-12 14:30N 37°45' E 023°25'0 0.0
2017-Nov-12 14:00N 37°45' E 023°25'2 4.8
2017-Nov-12 13:30N 37°47' E 023°26'714.4
2017-Nov-12 13:00N 37°52' E 023°33'612.8
2017-Nov-12 12:30N 37°57' E 023°38'0 0.0
2017-Nov-12 12:00N 37°57' E 023°38'0 0.0
2017-Nov-12 11:31N 37°57' E 023°38'0 0.0
2017-Nov-12 11:01N 37°57' E 023°38'0 0.0
2017-Nov-12 10:30N 37°57' E 023°38'0 0.0
2017-Nov-12 10:00N 37°57' E 023°38'0 0.0
2017-Nov-12 09:31N 37°57' E 023°38'0 0.0
2017-Nov-12 09:01N 37°57' E 023°38'0 0.2
2017-Nov-12 08:31N 37°57' E 023°38'612.5
2017-Nov-12 08:00N 37°52' E 023°33'714.1
2017-Nov-12 07:30N 37°47' E 023°27'3 5.2
2017-Nov-12 07:01N 37°45' E 023°25'611.4
2017-Nov-12 06:30N 37°49' E 023°30'714.2
2017-Nov-12 06:00N 37°54' E 023°36'3 6.0
2017-Nov-12 05:30N 37°57' E 023°38'0 0.0
2017-Nov-12 05:00N 37°57' E 023°38'0 0.0
2017-Nov-11 15:23N 37°57' E 023°38'3 8.2
2017-Nov-11 15:00N 37°55' E 023°35'714.2
2017-Nov-11 14:30N 37°49' E 023°30'611.2
2017-Nov-11 14:00N 37°45' E 023°25'0 0.0
2017-Nov-11 13:30N 37°45' E 023°25'2 4.6
2017-Nov-11 13:00N 37°47' E 023°26'714.3
2017-Nov-11 12:31N 37°52' E 023°33'713.2
2017-Nov-11 12:00N 37°57' E 023°38'0 0.1
2017-Nov-11 11:30N 37°57' E 023°38'0 0.0
2017-Nov-11 11:00N 37°57' E 023°38'0 0.0
2017-Nov-11 10:30N 37°57' E 023°38'0 0.0
2017-Nov-11 10:00N 37°57' E 023°38'0 0.0
2017-Nov-11 09:30N 37°57' E 023°38'0 0.0
2017-Nov-11 09:00N 37°57' E 023°38'1 2.4
2017-Nov-11 08:30N 37°56' E 023°37'714.1
2017-Nov-11 08:00N 37°51' E 023°32'714.3
2017-Nov-11 07:30N 37°46' E 023°25'1 2.9
2017-Nov-11 07:00N 37°45' E 023°25'612.1
2017-Nov-11 06:30N 37°50' E 023°30'714.1
2017-Nov-11 06:01N 37°55' E 023°36'3 5.8
2017-Nov-11 05:30N 37°57' E 023°38'0 0.0
2017-Nov-11 05:00N 37°57' E 023°38'0 0.0
2017-Nov-10 15:26N 37°57' E 023°38'3 6.8
2017-Nov-10 15:00N 37°55' E 023°36'714.2
2017-Nov-10 14:30N 37°49' E 023°30'611.6
2017-Nov-10 14:00N 37°45' E 023°25'2 4.7
2017-Nov-10 13:31N 37°47' E 023°26'714.2
2017-Nov-10 13:01N 37°52' E 023°33'713.1
2017-Nov-10 12:30N 37°57' E 023°38'0 0.1
2017-Nov-10 12:00N 37°57' E 023°38'0 0.0
2017-Nov-10 11:30N 37°57' E 023°38'0 0.0
2017-Nov-10 11:00N 37°57' E 023°38'0 0.0
2017-Nov-10 10:30N 37°57' E 023°38'0 0.0
2017-Nov-10 10:00N 37°57' E 023°38'0 0.0
2017-Nov-10 09:30N 37°57' E 023°38'0 0.0
2017-Nov-10 09:00N 37°57' E 023°38'0 0.0
2017-Nov-10 08:30N 37°57' E 023°38'4 7.9
2017-Nov-10 08:01N 37°54' E 023°35'713.9
2017-Nov-10 07:30N 37°49' E 023°29'5 9.8
2017-Nov-10 07:00N 37°45' E 023°25'1 1.2
2017-Nov-10 06:30N 37°45' E 023°25'713.5
2017-Nov-10 06:00N 37°50' E 023°31'714.3
2017-Nov-10 05:30N 37°56' E 023°36'2 3.8
2017-Nov-10 05:00N 37°57' E 023°38'0 0.0
2017-Nov-10 04:30N 37°57' E 023°38'  
Track history (hours):
 
Tides and Currents Weather Stations Pressure Air Temp Water Temp Dewpoint Dewpoint Depression Visibility Wind Speed Wind Dir Waves Ship Positions

Apollon Hellas

Last reported at 2017-Nov-19 19:03 UTC. Time now 2017-Nov-19 20:10 UTC.
Position N 37°57' E 023°38'.

Length 92 m; draft 4 m.

Type: Ship. MMSI: 237002600.

Date/timePositionNaut miles runAvg speedWind from/ knotsBaromVisibWave heightAir tempDewpointWater temp
2017-Nov-19 19:03N 37°57' E 023°38'0 0.2
2017-Nov-19 19:00N 37°57' E 023°38'5 9.6
2017-Nov-19 18:30N 37°53' E 023°34'714.3
2017-Nov-19 18:01N 37°48' E 023°28'4 7.7
2017-Nov-19 17:30N 37°45' E 023°25'3 6.0
2017-Nov-19 17:01N 37°47' E 023°27'714.3
2017-Nov-19 16:30N 37°52' E 023°33'611.7
2017-Nov-19 16:00N 37°57' E 023°38'4 7.1
2017-Nov-19 15:30N 37°54' E 023°35'714.2
2017-Nov-19 15:00N 37°49' E 023°29'510.2
2017-Nov-19 14:30N 37°45' E 023°25'0 0.0
2017-Nov-19 14:00N 37°45' E 023°25'3 5.7
2017-Nov-19 13:30N 37°47' E 023°27'714.2
2017-Nov-19 13:00N 37°52' E 023°34'612.0
2017-Nov-19 12:30N 37°57' E 023°38'0 0.0
2017-Nov-19 12:00N 37°57' E 023°38'4 8.6
2017-Nov-19 11:30N 37°54' E 023°35'714.3
2017-Nov-19 11:00N 37°48' E 023°29'4 8.6
2017-Nov-19 10:30N 37°45' E 023°25'0 0.4
2017-Nov-19 10:00N 37°45' E 023°25'612.3
2017-Nov-19 09:31N 37°49' E 023°30'714.2
2017-Nov-19 09:00N 37°55' E 023°36'2 4.7
2017-Nov-19 08:29N 37°57' E 023°38'613.4
2017-Nov-19 08:00N 37°52' E 023°33'714.4
2017-Nov-19 07:30N 37°47' E 023°26'2 4.6
2017-Nov-19 07:00N 37°45' E 023°25'612.8
2017-Nov-19 06:30N 37°49' E 023°30'714.2
2017-Nov-19 06:00N 37°55' E 023°36'3 5.2
2017-Nov-19 05:29N 37°57' E 023°38'0 0.0
2017-Nov-18 16:16N 37°57' E 023°38'312.4
2017-Nov-18 16:00N 37°54' E 023°35'714.2
2017-Nov-18 15:30N 37°49' E 023°29'510.4
2017-Nov-18 15:00N 37°45' E 023°25'0 0.0
2017-Nov-18 14:30N 37°45' E 023°25'3 5.5
2017-Nov-18 14:00N 37°47' E 023°27'714.3
2017-Nov-18 13:31N 37°52' E 023°33'612.1
2017-Nov-18 13:00N 37°57' E 023°38'0 0.0
2017-Nov-18 12:28N 37°57' E 023°38'3 7.3
2017-Nov-18 12:01N 37°55' E 023°35'714.4
2017-Nov-18 11:30N 37°49' E 023°29'510.5
2017-Nov-18 11:00N 37°45' E 023°25'0 0.0
2017-Nov-18 10:30N 37°45' E 023°25'3 5.6
2017-Nov-18 10:00N 37°47' E 023°27'714.2
2017-Nov-18 09:30N 37°52' E 023°33'6 8.4
2017-Nov-18 08:48N 37°57' E 023°38'310.2
2017-Nov-18 08:30N 37°55' E 023°36'714.3
2017-Nov-18 08:00N 37°49' E 023°30'611.4
2017-Nov-18 07:31N 37°45' E 023°25'3 5.2
2017-Nov-18 07:00N 37°47' E 023°27'714.2
2017-Nov-18 06:30N 37°52' E 023°33'6 0.5
2017-Nov-17 18:30N 37°57' E 023°38'713.3
2017-Nov-17 18:01N 37°52' E 023°33'714.3
2017-Nov-17 17:31N 37°47' E 023°26'2 4.4
2017-Nov-17 17:00N 37°45' E 023°25'612.6
2017-Nov-17 16:30N 37°50' E 023°30'714.3
2017-Nov-17 16:01N 37°55' E 023°36'2 4.9
2017-Nov-17 15:30N 37°57' E 023°38'3 6.8
2017-Nov-17 15:00N 37°54' E 023°35'714.2
2017-Nov-17 14:30N 37°49' E 023°30'510.7
2017-Nov-17 14:00N 37°45' E 023°25'2 4.2
2017-Nov-17 13:30N 37°47' E 023°26'714.5
2017-Nov-17 13:00N 37°52' E 023°33'713.3
2017-Nov-17 12:30N 37°57' E 023°38'0 0.0
2017-Nov-17 11:51N 37°57' E 023°38'410.5
2017-Nov-17 11:30N 37°54' E 023°35'713.9
2017-Nov-17 11:00N 37°49' E 023°29'510.2
2017-Nov-17 10:30N 37°45' E 023°25'0 0.3
2017-Nov-17 10:00N 37°45' E 023°25'612.6
2017-Nov-17 09:30N 37°49' E 023°30'714.2
2017-Nov-17 09:00N 37°55' E 023°36'3 5.1
2017-Nov-17 08:30N 37°57' E 023°38'4 8.4
2017-Nov-17 08:00N 37°54' E 023°35'714.0
2017-Nov-17 07:30N 37°48' E 023°29'5 9.3
2017-Nov-17 07:00N 37°45' E 023°25'2 4.5
2017-Nov-17 06:31N 37°47' E 023°26'714.2
2017-Nov-17 06:01N 37°52' E 023°33'612.5
2017-Nov-17 05:30N 37°56' E 023°38'0 0.7
2017-Nov-17 05:00N 37°57' E 023°38'0 0.0
2017-Nov-16 17:31N 37°57' E 023°38'0 0.9
2017-Nov-16 17:30N 37°57' E 023°38'4 7.9
2017-Nov-16 17:01N 37°54' E 023°35'713.9
2017-Nov-16 16:30N 37°49' E 023°29'5 9.7
2017-Nov-16 16:00N 37°45' E 023°25'0 0.0
2017-Nov-16 15:30N 37°45' E 023°25'0 0.7
2017-Nov-16 15:00N 37°45' E 023°25'613.0
2017-Nov-16 14:30N 37°49' E 023°31'714.0
2017-Nov-16 14:00N 37°55' E 023°36'3 5.2
2017-Nov-16 13:30N 37°57' E 023°38'1 1.3
2017-Nov-16 13:00N 37°56' E 023°38'713.1
2017-Nov-16 12:30N 37°51' E 023°33'714.2
2017-Nov-16 12:00N 37°47' E 023°26'2 4.0
2017-Nov-16 11:30N 37°45' E 023°25'3 6.1
2017-Nov-16 11:01N 37°47' E 023°27'713.6
2017-Nov-16 10:30N 37°52' E 023°34'612.0
2017-Nov-16 10:01N 37°57' E 023°38'0 0.0
2017-Nov-16 09:30N 37°57' E 023°38'0 0.0
2017-Nov-16 09:01N 37°57' E 023°38'0 0.0
2017-Nov-16 08:30N 37°57' E 023°38'4 7.8
2017-Nov-16 08:01N 37°54' E 023°35'714.2
2017-Nov-16 07:31N 37°49' E 023°29'5 9.6
2017-Nov-16 07:00N 37°45' E 023°25'1 2.4
2017-Nov-16 06:30N 37°46' E 023°25'714.0
2017-Nov-16 06:00N 37°50' E 023°31'714.3
2017-Nov-16 05:30N 37°56' E 023°37'1 2.6
2017-Nov-16 05:00N 37°57' E 023°38'0 0.0
2017-Nov-16 04:30N 37°57' E 023°38'0 0.0
2017-Nov-15 16:45N 37°57' E 023°38'1 2.2
2017-Nov-15 16:30N 37°56' E 023°38'713.3
2017-Nov-15 16:00N 37°51' E 023°32'714.1
2017-Nov-15 15:31N 37°47' E 023°26'2 3.9
2017-Nov-15 15:00N 37°45' E 023°25'4 7.9
2017-Nov-15 14:30N 37°48' E 023°28'714.2
2017-Nov-15 14:00N 37°53' E 023°35'5 9.6
2017-Nov-15 13:30N 37°57' E 023°38'1 1.1
2017-Nov-15 13:00N 37°56' E 023°38'713.5
2017-Nov-15 12:31N 37°51' E 023°32'714.2
2017-Nov-15 12:00N 37°46' E 023°26'2 3.5
2017-Nov-15 11:30N 37°45' E 023°25'3 5.9
2017-Nov-15 11:00N 37°47' E 023°27'713.8
2017-Nov-15 10:30N 37°52' E 023°34'612.0
2017-Nov-15 10:01N 37°57' E 023°38'0 0.0
2017-Nov-15 09:31N 37°57' E 023°38'0 0.0
2017-Nov-15 09:01N 37°57' E 023°38'0 0.0
2017-Nov-15 08:30N 37°57' E 023°38'4 8.5
2017-Nov-15 08:00N 37°53' E 023°35'713.8
2017-Nov-15 07:30N 37°48' E 023°29'5 9.3
2017-Nov-15 07:00N 37°45' E 023°25'2 4.0
2017-Nov-15 06:31N 37°47' E 023°26'713.9
2017-Nov-15 06:00N 37°51' E 023°33'713.6
2017-Nov-15 05:30N 37°56' E 023°38'0 1.0
2017-Nov-15 05:00N 37°57' E 023°38'0 0.0
2017-Nov-15 04:31N 37°57' E 023°38'0 0.0
2017-Nov-14 19:55N 37°57' E 023°38'2 5.0
2017-Nov-14 19:31N 37°57' E 023°36'3 6.9
2017-Nov-14 19:01N 37°54' E 023°34'713.8
2017-Nov-14 18:31N 37°49' E 023°29'5 9.1
2017-Nov-14 18:00N 37°45' E 023°25'0 0.0
2017-Nov-14 17:31N 37°45' E 023°25'0 0.0
2017-Nov-14 17:01N 37°45' E 023°25'0 0.0
2017-Nov-14 16:31N 37°45' E 023°25'0 0.0
2017-Nov-14 16:01N 37°45' E 023°25'0 0.0
2017-Nov-14 15:31N 37°45' E 023°25'0 0.0
2017-Nov-14 15:00N 37°45' E 023°25'510.8
2017-Nov-14 14:31N 37°49' E 023°29'713.6
2017-Nov-14 14:00N 37°55' E 023°34'3 5.9
2017-Nov-14 13:30N 37°57' E 023°36'2 3.4
2017-Nov-14 13:01N 37°57' E 023°38'3 6.9
2017-Nov-14 12:31N 37°54' E 023°35'714.0
2017-Nov-14 12:01N 37°49' E 023°29'510.7
2017-Nov-14 11:31N 37°45' E 023°25'2 4.3
2017-Nov-14 11:00N 37°47' E 023°26'714.3
2017-Nov-14 10:30N 37°52' E 023°33'713.4
2017-Nov-14 10:00N 37°57' E 023°38'0 0.1
2017-Nov-14 09:30N 37°57' E 023°38'0 0.0
2017-Nov-14 09:00N 37°57' E 023°38'0 0.0
2017-Nov-14 08:30N 37°57' E 023°38'5 9.6
2017-Nov-14 08:00N 37°53' E 023°34'714.0
2017-Nov-14 07:30N 37°48' E 023°28'4 8.3
2017-Nov-14 07:00N 37°45' E 023°25'2 4.2
2017-Nov-14 06:30N 37°47' E 023°26'714.2
2017-Nov-14 06:00N 37°51' E 023°33'713.3
2017-Nov-14 05:31N 37°57' E 023°38'0 0.6
2017-Nov-14 05:00N 37°57' E 023°38'0 0.0
2017-Nov-14 04:30N 37°57' E 023°38'0 0.0
2017-Nov-12 16:31N 37°57' E 023°38'0 2.9
2017-Nov-12 16:30N 37°57' E 023°38'4 7.7
2017-Nov-12 16:00N 37°54' E 023°35'714.1
2017-Nov-12 15:30N 37°49' E 023°29'5 9.7
2017-Nov-12 15:00N 37°45' E 023°25'0 0.0
2017-Nov-12 14:30N 37°45' E 023°25'0 0.0
2017-Nov-12 14:00N 37°45' E 023°25'2 4.8
2017-Nov-12 13:30N 37°47' E 023°26'714.4
2017-Nov-12 13:00N 37°52' E 023°33'612.8
2017-Nov-12 12:30N 37°57' E 023°38'0 0.0
2017-Nov-12 12:00N 37°57' E 023°38'0 0.0
2017-Nov-12 11:31N 37°57' E 023°38'0 0.0
2017-Nov-12 11:01N 37°57' E 023°38'0 0.0
2017-Nov-12 10:30N 37°57' E 023°38'0 0.0
2017-Nov-12 10:00N 37°57' E 023°38'0 0.0
2017-Nov-12 09:31N 37°57' E 023°38'0 0.0
2017-Nov-12 09:01N 37°57' E 023°38'0 0.2
2017-Nov-12 08:31N 37°57' E 023°38'612.5
2017-Nov-12 08:00N 37°52' E 023°33'714.1
2017-Nov-12 07:30N 37°47' E 023°27'3 5.2
2017-Nov-12 07:01N 37°45' E 023°25'611.4
2017-Nov-12 06:30N 37°49' E 023°30'714.2
2017-Nov-12 06:00N 37°54' E 023°36'3 6.0
2017-Nov-12 05:30N 37°57' E 023°38'0 0.0
2017-Nov-12 05:00N 37°57' E 023°38'0 0.0
2017-Nov-11 15:23N 37°57' E 023°38'3 8.2
2017-Nov-11 15:00N 37°55' E 023°35'714.2
2017-Nov-11 14:30N 37°49' E 023°30'611.2
2017-Nov-11 14:00N 37°45' E 023°25'0 0.0
2017-Nov-11 13:30N 37°45' E 023°25'2 4.6
2017-Nov-11 13:00N 37°47' E 023°26'714.3
2017-Nov-11 12:31N 37°52' E 023°33'713.2
2017-Nov-11 12:00N 37°57' E 023°38'0 0.1
2017-Nov-11 11:30N 37°57' E 023°38'0 0.0
2017-Nov-11 11:00N 37°57' E 023°38'0 0.0
2017-Nov-11 10:30N 37°57' E 023°38'0 0.0
2017-Nov-11 10:00N 37°57' E 023°38'0 0.0
2017-Nov-11 09:30N 37°57' E 023°38'0 0.0
2017-Nov-11 09:00N 37°57' E 023°38'1 2.4
2017-Nov-11 08:30N 37°56' E 023°37'714.1
2017-Nov-11 08:00N 37°51' E 023°32'714.3
2017-Nov-11 07:30N 37°46' E 023°25'1 2.9
2017-Nov-11 07:00N 37°45' E 023°25'612.1
2017-Nov-11 06:30N 37°50' E 023°30'714.1
2017-Nov-11 06:01N 37°55' E 023°36'3 5.8
2017-Nov-11 05:30N 37°57' E 023°38'0 0.0
2017-Nov-11 05:00N 37°57' E 023°38'0 0.0
2017-Nov-10 15:26N 37°57' E 023°38'3 6.8
2017-Nov-10 15:00N 37°55' E 023°36'714.2
2017-Nov-10 14:30N 37°49' E 023°30'611.6
2017-Nov-10 14:00N 37°45' E 023°25'2 4.7
2017-Nov-10 13:31N 37°47' E 023°26'714.2
2017-Nov-10 13:01N 37°52' E 023°33'713.1
2017-Nov-10 12:30N 37°57' E 023°38'0 0.1
2017-Nov-10 12:00N 37°57' E 023°38'0 0.0
2017-Nov-10 11:30N 37°57' E 023°38'0 0.0
2017-Nov-10 11:00N 37°57' E 023°38'0 0.0
2017-Nov-10 10:30N 37°57' E 023°38'0 0.0
2017-Nov-10 10:00N 37°57' E 023°38'0 0.0
2017-Nov-10 09:30N 37°57' E 023°38'0 0.0
2017-Nov-10 09:00N 37°57' E 023°38'0 0.0
2017-Nov-10 08:30N 37°57' E 023°38'4 7.9
2017-Nov-10 08:01N 37°54' E 023°35'713.9
2017-Nov-10 07:30N 37°49' E 023°29'5 9.8
2017-Nov-10 07:00N 37°45' E 023°25'1 1.2
2017-Nov-10 06:30N 37°45' E 023°25'713.5
2017-Nov-10 06:00N 37°50' E 023°31'714.3
2017-Nov-10 05:30N 37°56' E 023°36'2 3.8
2017-Nov-10 05:00N 37°57' E 023°38'0 0.0
2017-Nov-10 04:30N 37°57' E 023°38'  

Dump ship's entire track history